sensor_id;sensor_type;location;lat;lon;timestamp;P1;durP1;ratioP1;P2;durP2;ratioP2
38240;SDS011;24037;49.536;8.500;2023-08-08T00:02:17;4.10;;;1.20;;
38240;SDS011;24037;49.536;8.500;2023-08-08T00:04:43;4.80;;;1.42;;
38240;SDS011;24037;49.536;8.500;2023-08-08T00:07:10;1.98;;;1.00;;
38240;SDS011;24037;49.536;8.500;2023-08-08T00:09:36;3.35;;;1.65;;
38240;SDS011;24037;49.536;8.500;2023-08-08T00:12:03;2.28;;;0.88;;
38240;SDS011;24037;49.536;8.500;2023-08-08T00:14:29;3.40;;;1.15;;
38240;SDS011;24037;49.536;8.500;2023-08-08T00:16:55;3.35;;;1.15;;
38240;SDS011;24037;49.536;8.500;2023-08-08T00:19:21;1.45;;;1.10;;
38240;SDS011;24037;49.536;8.500;2023-08-08T00:21:48;1.40;;;0.70;;
38240;SDS011;24037;49.536;8.500;2023-08-08T00:24:14;2.55;;;0.80;;
38240;SDS011;24037;49.536;8.500;2023-08-08T00:26:40;2.55;;;1.55;;
38240;SDS011;24037;49.536;8.500;2023-08-08T00:29:06;1.95;;;1.08;;
38240;SDS011;24037;49.536;8.500;2023-08-08T00:31:33;2.35;;;0.85;;
38240;SDS011;24037;49.536;8.500;2023-08-08T00:33:59;1.95;;;0.80;;
38240;SDS011;24037;49.536;8.500;2023-08-08T00:36:25;3.10;;;1.00;;
38240;SDS011;24037;49.536;8.500;2023-08-08T00:38:51;3.25;;;1.10;;
38240;SDS011;24037;49.536;8.500;2023-08-08T00:41:17;3.72;;;1.42;;
38240;SDS011;24037;49.536;8.500;2023-08-08T00:43:43;2.97;;;1.15;;
38240;SDS011;24037;49.536;8.500;2023-08-08T00:46:10;2.40;;;0.93;;
38240;SDS011;24037;49.536;8.500;2023-08-08T00:48:39;2.05;;;1.10;;
38240;SDS011;24037;49.536;8.500;2023-08-08T00:51:05;3.53;;;1.70;;
38240;SDS011;24037;49.536;8.500;2023-08-08T00:53:31;2.72;;;1.17;;
38240;SDS011;24037;49.536;8.500;2023-08-08T00:55:58;3.40;;;1.17;;
38240;SDS011;24037;49.536;8.500;2023-08-08T00:58:25;1.92;;;0.77;;
38240;SDS011;24037;49.536;8.500;2023-08-08T01:00:52;3.15;;;1.15;;
38240;SDS011;24037;49.536;8.500;2023-08-08T01:03:22;3.13;;;1.35;;
38240;SDS011;24037;49.536;8.500;2023-08-08T01:05:51;2.50;;;1.23;;
38240;SDS011;24037;49.536;8.500;2023-08-08T01:08:42;3.47;;;1.35;;
38240;SDS011;24037;49.536;8.500;2023-08-08T01:13:40;2.13;;;1.20;;
38240;SDS011;24037;49.536;8.500;2023-08-08T01:16:08;2.25;;;1.08;;
38240;SDS011;24037;49.536;8.500;2023-08-08T01:18:36;2.85;;;1.27;;
38240;SDS011;24037;49.536;8.500;2023-08-08T01:21:04;3.45;;;1.33;;
38240;SDS011;24037;49.536;8.500;2023-08-08T01:23:43;3.88;;;1.90;;
38240;SDS011;24037;49.536;8.500;2023-08-08T01:26:15;7.53;;;1.45;;
38240;SDS011;24037;49.536;8.500;2023-08-08T01:28:42;5.10;;;1.17;;
38240;SDS011;24037;49.536;8.500;2023-08-08T01:31:09;3.40;;;1.50;;
38240;SDS011;24037;49.536;8.500;2023-08-08T01:33:35;2.45;;;1.23;;
38240;SDS011;24037;49.536;8.500;2023-08-08T01:36:07;1.42;;;0.90;;
38240;SDS011;24037;49.536;8.500;2023-08-08T01:38:54;1.75;;;1.50;;
38240;SDS011;24037;49.536;8.500;2023-08-08T01:41:34;2.13;;;1.02;;
38240;SDS011;24037;49.536;8.500;2023-08-08T01:44:03;3.80;;;1.02;;
38240;SDS011;24037;49.536;8.500;2023-08-08T01:46:30;3.42;;;1.55;;
38240;SDS011;24037;49.536;8.500;2023-08-08T01:48:58;3.90;;;1.38;;
38240;SDS011;24037;49.536;8.500;2023-08-08T01:51:25;2.92;;;1.33;;
38240;SDS011;24037;49.536;8.500;2023-08-08T01:53:52;3.55;;;1.63;;
38240;SDS011;24037;49.536;8.500;2023-08-08T01:56:18;2.50;;;1.08;;
38240;SDS011;24037;49.536;8.500;2023-08-08T01:58:44;8.60;;;1.63;;
38240;SDS011;24037;49.536;8.500;2023-08-08T02:01:10;3.30;;;1.33;;
38240;SDS011;24037;49.536;8.500;2023-08-08T02:03:37;2.38;;;1.77;;
38240;SDS011;24037;49.536;8.500;2023-08-08T02:06:03;2.55;;;1.40;;
38240;SDS011;24037;49.536;8.500;2023-08-08T02:08:30;2.70;;;1.20;;
38240;SDS011;24037;49.536;8.500;2023-08-08T02:10:56;2.25;;;0.95;;
38240;SDS011;24037;49.536;8.500;2023-08-08T02:13:22;4.25;;;1.55;;
38240;SDS011;24037;49.536;8.500;2023-08-08T02:15:48;2.58;;;1.10;;
38240;SDS011;24037;49.536;8.500;2023-08-08T02:18:14;2.65;;;1.50;;
38240;SDS011;24037;49.536;8.500;2023-08-08T02:20:40;4.00;;;1.45;;
38240;SDS011;24037;49.536;8.500;2023-08-08T02:23:07;6.28;;;2.13;;
38240;SDS011;24037;49.536;8.500;2023-08-08T02:25:33;4.88;;;1.80;;
38240;SDS011;24037;49.536;8.500;2023-08-08T02:27:59;4.88;;;1.85;;
38240;SDS011;24037;49.536;8.500;2023-08-08T02:30:25;5.05;;;1.63;;
38240;SDS011;24037;49.536;8.500;2023-08-08T02:32:51;3.53;;;1.35;;
38240;SDS011;24037;49.536;8.500;2023-08-08T02:35:18;2.63;;;1.15;;
38240;SDS011;24037;49.536;8.500;2023-08-08T02:37:44;2.03;;;1.17;;
38240;SDS011;24037;49.536;8.500;2023-08-08T02:40:10;2.45;;;1.38;;
38240;SDS011;24037;49.536;8.500;2023-08-08T02:42:36;2.08;;;0.93;;
38240;SDS011;24037;49.536;8.500;2023-08-08T02:45:03;2.28;;;1.35;;
38240;SDS011;24037;49.536;8.500;2023-08-08T02:47:30;2.55;;;1.20;;
38240;SDS011;24037;49.536;8.500;2023-08-08T02:49:56;3.63;;;1.55;;
38240;SDS011;24037;49.536;8.500;2023-08-08T02:52:22;5.88;;;1.67;;
38240;SDS011;24037;49.536;8.500;2023-08-08T02:54:48;2.95;;;1.17;;
38240;SDS011;24037;49.536;8.500;2023-08-08T02:57:15;5.25;;;1.73;;
38240;SDS011;24037;49.536;8.500;2023-08-08T02:59:43;5.03;;;2.20;;
38240;SDS011;24037;49.536;8.500;2023-08-08T03:02:09;3.72;;;1.80;;
38240;SDS011;24037;49.536;8.500;2023-08-08T03:04:37;3.42;;;1.40;;
38240;SDS011;24037;49.536;8.500;2023-08-08T03:07:06;4.25;;;2.45;;
38240;SDS011;24037;49.536;8.500;2023-08-08T03:09:34;2.88;;;1.38;;
38240;SDS011;24037;49.536;8.500;2023-08-08T03:12:01;4.30;;;1.60;;
38240;SDS011;24037;49.536;8.500;2023-08-08T03:14:29;4.95;;;2.03;;
38240;SDS011;24037;49.536;8.500;2023-08-08T03:16:58;2.53;;;1.80;;
38240;SDS011;24037;49.536;8.500;2023-08-08T03:19:24;4.28;;;2.58;;
38240;SDS011;24037;49.536;8.500;2023-08-08T03:21:51;3.40;;;2.15;;
38240;SDS011;24037;49.536;8.500;2023-08-08T03:24:18;3.53;;;2.03;;
38240;SDS011;24037;49.536;8.500;2023-08-08T03:26:44;5.47;;;3.05;;
38240;SDS011;24037;49.536;8.500;2023-08-08T03:29:11;5.18;;;3.03;;
38240;SDS011;24037;49.536;8.500;2023-08-08T03:31:43;10.15;;;2.25;;
38240;SDS011;24037;49.536;8.500;2023-08-08T03:34:09;3.78;;;2.05;;
38240;SDS011;24037;49.536;8.500;2023-08-08T03:36:35;3.60;;;2.00;;
38240;SDS011;24037;49.536;8.500;2023-08-08T03:39:01;7.15;;;2.55;;
38240;SDS011;24037;49.536;8.500;2023-08-08T03:41:29;4.72;;;2.05;;
38240;SDS011;24037;49.536;8.500;2023-08-08T03:43:55;3.92;;;2.03;;
38240;SDS011;24037;49.536;8.500;2023-08-08T03:46:23;5.90;;;2.10;;
38240;SDS011;24037;49.536;8.500;2023-08-08T03:48:49;7.13;;;3.20;;
38240;SDS011;24037;49.536;8.500;2023-08-08T03:51:15;4.45;;;2.05;;
38240;SDS011;24037;49.536;8.500;2023-08-08T03:53:42;5.22;;;2.40;;
38240;SDS011;24037;49.536;8.500;2023-08-08T03:56:08;4.65;;;1.95;;
38240;SDS011;24037;49.536;8.500;2023-08-08T03:58:37;6.10;;;2.53;;
38240;SDS011;24037;49.536;8.500;2023-08-08T04:01:03;7.53;;;2.30;;
38240;SDS011;24037;49.536;8.500;2023-08-08T04:03:31;2.97;;;1.85;;
38240;SDS011;24037;49.536;8.500;2023-08-08T04:05:57;3.25;;;1.90;;
38240;SDS011;24037;49.536;8.500;2023-08-08T04:08:23;4.05;;;2.10;;
38240;SDS011;24037;49.536;8.500;2023-08-08T04:10:49;4.95;;;1.85;;
38240;SDS011;24037;49.536;8.500;2023-08-08T04:13:15;5.70;;;2.47;;
38240;SDS011;24037;49.536;8.500;2023-08-08T04:15:41;3.75;;;1.80;;
38240;SDS011;24037;49.536;8.500;2023-08-08T04:18:08;3.60;;;2.45;;
38240;SDS011;24037;49.536;8.500;2023-08-08T04:20:34;4.70;;;1.90;;
38240;SDS011;24037;49.536;8.500;2023-08-08T04:23:00;4.50;;;1.80;;
38240;SDS011;24037;49.536;8.500;2023-08-08T04:25:27;4.63;;;1.88;;
38240;SDS011;24037;49.536;8.500;2023-08-08T04:27:53;5.18;;;1.95;;
38240;SDS011;24037;49.536;8.500;2023-08-08T04:30:20;4.13;;;1.75;;
38240;SDS011;24037;49.536;8.500;2023-08-08T04:32:46;4.43;;;2.28;;
38240;SDS011;24037;49.536;8.500;2023-08-08T04:35:12;3.92;;;2.00;;
38240;SDS011;24037;49.536;8.500;2023-08-08T04:37:38;3.97;;;1.92;;
38240;SDS011;24037;49.536;8.500;2023-08-08T04:40:05;3.30;;;1.63;;
38240;SDS011;24037;49.536;8.500;2023-08-08T04:42:33;4.50;;;2.60;;
38240;SDS011;24037;49.536;8.500;2023-08-08T04:45:00;6.82;;;2.38;;
38240;SDS011;24037;49.536;8.500;2023-08-08T04:47:26;5.68;;;2.28;;
38240;SDS011;24037;49.536;8.500;2023-08-08T04:49:52;4.25;;;2.42;;
38240;SDS011;24037;49.536;8.500;2023-08-08T04:52:18;5.22;;;2.42;;
38240;SDS011;24037;49.536;8.500;2023-08-08T04:54:44;7.05;;;2.80;;
38240;SDS011;24037;49.536;8.500;2023-08-08T04:57:10;4.00;;;1.67;;
38240;SDS011;24037;49.536;8.500;2023-08-08T04:59:37;3.53;;;1.73;;
38240;SDS011;24037;49.536;8.500;2023-08-08T05:02:03;2.70;;;1.30;;
38240;SDS011;24037;49.536;8.500;2023-08-08T05:04:29;3.53;;;1.88;;
38240;SDS011;24037;49.536;8.500;2023-08-08T05:06:56;4.05;;;1.70;;
38240;SDS011;24037;49.536;8.500;2023-08-08T05:09:23;2.55;;;1.40;;
38240;SDS011;24037;49.536;8.500;2023-08-08T05:11:52;5.13;;;1.67;;
38240;SDS011;24037;49.536;8.500;2023-08-08T05:14:19;10.50;;;2.45;;
38240;SDS011;24037;49.536;8.500;2023-08-08T05:16:45;5.40;;;1.90;;
38240;SDS011;24037;49.536;8.500;2023-08-08T05:19:12;4.10;;;1.48;;
38240;SDS011;24037;49.536;8.500;2023-08-08T05:21:38;7.88;;;1.63;;
38240;SDS011;24037;49.536;8.500;2023-08-08T05:24:04;3.80;;;1.38;;
38240;SDS011;24037;49.536;8.500;2023-08-08T05:26:30;4.00;;;1.65;;
38240;SDS011;24037;49.536;8.500;2023-08-08T05:28:56;2.60;;;1.23;;
38240;SDS011;24037;49.536;8.500;2023-08-08T05:31:22;5.85;;;1.85;;
38240;SDS011;24037;49.536;8.500;2023-08-08T05:33:48;2.67;;;1.33;;
38240;SDS011;24037;49.536;8.500;2023-08-08T05:36:15;3.00;;;1.77;;
38240;SDS011;24037;49.536;8.500;2023-08-08T05:38:41;4.03;;;1.55;;
38240;SDS011;24037;49.536;8.500;2023-08-08T05:41:10;3.00;;;1.38;;
38240;SDS011;24037;49.536;8.500;2023-08-08T05:43:39;6.82;;;1.48;;
38240;SDS011;24037;49.536;8.500;2023-08-08T05:46:05;4.65;;;1.30;;
38240;SDS011;24037;49.536;8.500;2023-08-08T05:48:31;2.80;;;1.02;;
38240;SDS011;24037;49.536;8.500;2023-08-08T05:50:57;3.53;;;1.58;;
38240;SDS011;24037;49.536;8.500;2023-08-08T05:53:24;3.42;;;1.20;;
38240;SDS011;24037;49.536;8.500;2023-08-08T05:55:50;3.33;;;1.45;;
38240;SDS011;24037;49.536;8.500;2023-08-08T05:58:16;4.05;;;1.38;;
38240;SDS011;24037;49.536;8.500;2023-08-08T06:00:42;6.55;;;1.77;;
38240;SDS011;24037;49.536;8.500;2023-08-08T06:03:09;5.38;;;1.17;;
38240;SDS011;24037;49.536;8.500;2023-08-08T06:05:35;4.20;;;1.30;;
38240;SDS011;24037;49.536;8.500;2023-08-08T06:08:01;3.13;;;0.80;;
38240;SDS011;24037;49.536;8.500;2023-08-08T06:10:27;2.78;;;1.27;;
38240;SDS011;24037;49.536;8.500;2023-08-08T06:12:53;3.38;;;1.15;;
38240;SDS011;24037;49.536;8.500;2023-08-08T06:15:19;1.88;;;0.80;;
38240;SDS011;24037;49.536;8.500;2023-08-08T06:17:45;2.75;;;0.63;;
38240;SDS011;24037;49.536;8.500;2023-08-08T06:20:12;1.27;;;0.50;;
38240;SDS011;24037;49.536;8.500;2023-08-08T06:22:38;4.53;;;0.90;;
38240;SDS011;24037;49.536;8.500;2023-08-08T06:25:04;4.07;;;1.08;;
38240;SDS011;24037;49.536;8.500;2023-08-08T06:27:30;2.63;;;0.55;;
38240;SDS011;24037;49.536;8.500;2023-08-08T06:29:57;3.38;;;1.23;;
38240;SDS011;24037;49.536;8.500;2023-08-08T06:32:24;3.05;;;0.52;;
38240;SDS011;24037;49.536;8.500;2023-08-08T06:34:50;5.43;;;0.68;;
38240;SDS011;24037;49.536;8.500;2023-08-08T06:37:16;2.97;;;0.60;;
38240;SDS011;24037;49.536;8.500;2023-08-08T06:39:42;3.33;;;0.80;;
38240;SDS011;24037;49.536;8.500;2023-08-08T06:42:08;5.10;;;0.70;;
38240;SDS011;24037;49.536;8.500;2023-08-08T06:44:46;2.95;;;1.05;;
38240;SDS011;24037;49.536;8.500;2023-08-08T06:47:13;1.08;;;0.40;;
38240;SDS011;24037;49.536;8.500;2023-08-08T06:49:39;1.13;;;0.60;;
38240;SDS011;24037;49.536;8.500;2023-08-08T06:52:05;1.00;;;0.50;;
38240;SDS011;24037;49.536;8.500;2023-08-08T06:54:32;4.25;;;0.80;;
38240;SDS011;24037;49.536;8.500;2023-08-08T06:56:58;2.10;;;0.75;;
38240;SDS011;24037;49.536;8.500;2023-08-08T06:59:25;3.95;;;0.73;;
38240;SDS011;24037;49.536;8.500;2023-08-08T07:01:53;2.25;;;0.60;;
38240;SDS011;24037;49.536;8.500;2023-08-08T07:04:19;3.03;;;1.00;;
38240;SDS011;24037;49.536;8.500;2023-08-08T07:06:46;2.70;;;1.00;;
38240;SDS011;24037;49.536;8.500;2023-08-08T07:09:13;4.22;;;0.50;;
38240;SDS011;24037;49.536;8.500;2023-08-08T07:11:40;3.08;;;1.20;;
38240;SDS011;24037;49.536;8.500;2023-08-08T07:14:06;4.75;;;0.70;;
38240;SDS011;24037;49.536;8.500;2023-08-08T07:16:32;2.50;;;0.63;;
38240;SDS011;24037;49.536;8.500;2023-08-08T07:18:59;1.92;;;0.50;;
38240;SDS011;24037;49.536;8.500;2023-08-08T07:21:25;2.53;;;0.60;;
38240;SDS011;24037;49.536;8.500;2023-08-08T07:23:52;1.55;;;0.68;;
38240;SDS011;24037;49.536;8.500;2023-08-08T07:26:18;2.47;;;0.70;;
38240;SDS011;24037;49.536;8.500;2023-08-08T07:28:44;1.77;;;0.38;;
38240;SDS011;24037;49.536;8.500;2023-08-08T07:31:10;1.92;;;0.50;;
38240;SDS011;24037;49.536;8.500;2023-08-08T07:33:36;1.80;;;0.85;;
38240;SDS011;24037;49.536;8.500;2023-08-08T07:36:02;2.67;;;0.52;;
38240;SDS011;24037;49.536;8.500;2023-08-08T07:38:29;2.00;;;0.52;;
38240;SDS011;24037;49.536;8.500;2023-08-08T07:40:55;1.55;;;0.50;;
38240;SDS011;24037;49.536;8.500;2023-08-08T07:43:21;1.02;;;0.50;;
38240;SDS011;24037;49.536;8.500;2023-08-08T07:45:47;5.88;;;1.13;;
38240;SDS011;24037;49.536;8.500;2023-08-08T07:48:14;2.05;;;0.50;;
38240;SDS011;24037;49.536;8.500;2023-08-08T07:50:40;3.75;;;0.95;;
38240;SDS011;24037;49.536;8.500;2023-08-08T07:53:06;2.20;;;0.73;;
38240;SDS011;24037;49.536;8.500;2023-08-08T07:55:33;1.52;;;0.50;;
38240;SDS011;24037;49.536;8.500;2023-08-08T07:57:59;1.70;;;0.60;;
38240;SDS011;24037;49.536;8.500;2023-08-08T08:00:25;2.30;;;0.45;;
38240;SDS011;24037;49.536;8.500;2023-08-08T08:02:52;1.00;;;0.50;;
38240;SDS011;24037;49.536;8.500;2023-08-08T08:05:18;0.85;;;0.40;;
38240;SDS011;24037;49.536;8.500;2023-08-08T08:07:47;1.40;;;0.40;;
38240;SDS011;24037;49.536;8.500;2023-08-08T08:10:13;1.48;;;0.60;;
38240;SDS011;24037;49.536;8.500;2023-08-08T08:12:40;0.93;;;0.40;;
38240;SDS011;24037;49.536;8.500;2023-08-08T08:15:07;5.43;;;1.13;;
38240;SDS011;24037;49.536;8.500;2023-08-08T08:17:34;1.88;;;0.80;;
38240;SDS011;24037;49.536;8.500;2023-08-08T08:20:00;2.40;;;0.40;;
38240;SDS011;24037;49.536;8.500;2023-08-08T08:22:31;1.80;;;0.60;;
38240;SDS011;24037;49.536;8.500;2023-08-08T08:24:58;2.17;;;0.63;;
38240;SDS011;24037;49.536;8.500;2023-08-08T08:27:24;1.23;;;0.55;;
38240;SDS011;24037;49.536;8.500;2023-08-08T08:29:50;1.50;;;0.50;;
38240;SDS011;24037;49.536;8.500;2023-08-08T08:32:16;2.72;;;0.90;;
38240;SDS011;24037;49.536;8.500;2023-08-08T08:34:42;2.05;;;0.60;;
38240;SDS011;24037;49.536;8.500;2023-08-08T08:37:09;1.27;;;0.60;;
38240;SDS011;24037;49.536;8.500;2023-08-08T08:39:38;2.63;;;0.50;;
38240;SDS011;24037;49.536;8.500;2023-08-08T08:42:04;3.08;;;0.65;;
38240;SDS011;24037;49.536;8.500;2023-08-08T08:44:32;0.90;;;0.40;;
38240;SDS011;24037;49.536;8.500;2023-08-08T08:47:02;2.03;;;0.60;;
38240;SDS011;24037;49.536;8.500;2023-08-08T08:51:56;4.38;;;0.60;;
38240;SDS011;24037;49.536;8.500;2023-08-08T08:54:26;1.80;;;0.60;;
38240;SDS011;24037;49.536;8.500;2023-08-08T08:56:55;3.50;;;0.47;;
38240;SDS011;24037;49.536;8.500;2023-08-08T08:59:22;1.95;;;0.90;;
38240;SDS011;24037;49.536;8.500;2023-08-08T09:01:51;0.80;;;0.30;;
38240;SDS011;24037;49.536;8.500;2023-08-08T09:04:19;3.63;;;0.90;;
38240;SDS011;24037;49.536;8.500;2023-08-08T09:06:46;3.72;;;0.70;;
38240;SDS011;24037;49.536;8.500;2023-08-08T09:09:13;1.05;;;0.50;;
38240;SDS011;24037;49.536;8.500;2023-08-08T09:11:42;2.25;;;0.52;;
38240;SDS011;24037;49.536;8.500;2023-08-08T09:14:20;1.23;;;0.32;;
38240;SDS011;24037;49.536;8.500;2023-08-08T09:16:51;2.15;;;0.50;;
38240;SDS011;24037;49.536;8.500;2023-08-08T09:19:22;1.13;;;0.57;;
38240;SDS011;24037;49.536;8.500;2023-08-08T09:21:50;2.05;;;0.47;;
38240;SDS011;24037;49.536;8.500;2023-08-08T09:24:18;1.52;;;0.50;;
38240;SDS011;24037;49.536;8.500;2023-08-08T09:26:45;1.95;;;0.60;;
38240;SDS011;24037;49.536;8.500;2023-08-08T09:29:11;0.75;;;0.43;;
38240;SDS011;24037;49.536;8.500;2023-08-08T09:31:39;0.77;;;0.43;;
38240;SDS011;24037;49.536;8.500;2023-08-08T09:34:06;1.83;;;0.55;;
38240;SDS011;24037;49.536;8.500;2023-08-08T09:36:32;2.00;;;0.47;;
38240;SDS011;24037;49.536;8.500;2023-08-08T09:38:59;0.95;;;0.50;;
38240;SDS011;24037;49.536;8.500;2023-08-08T09:41:25;1.58;;;0.77;;
38240;SDS011;24037;49.536;8.500;2023-08-08T09:43:52;0.93;;;0.40;;
38240;SDS011;24037;49.536;8.500;2023-08-08T09:46:19;2.45;;;1.15;;
38240;SDS011;24037;49.536;8.500;2023-08-08T09:48:45;2.15;;;0.63;;
38240;SDS011;24037;49.536;8.500;2023-08-08T09:51:12;3.05;;;0.80;;
38240;SDS011;24037;49.536;8.500;2023-08-08T09:53:39;1.40;;;0.40;;
38240;SDS011;24037;49.536;8.500;2023-08-08T09:56:06;1.98;;;0.43;;
38240;SDS011;24037;49.536;8.500;2023-08-08T09:58:33;3.33;;;0.80;;
38240;SDS011;24037;49.536;8.500;2023-08-08T10:00:59;1.33;;;0.52;;
38240;SDS011;24037;49.536;8.500;2023-08-08T10:03:26;2.17;;;0.60;;
38240;SDS011;24037;49.536;8.500;2023-08-08T10:05:54;1.98;;;0.70;;
38240;SDS011;24037;49.536;8.500;2023-08-08T10:08:20;1.50;;;0.65;;
38240;SDS011;24037;49.536;8.500;2023-08-08T10:10:47;2.08;;;0.52;;
38240;SDS011;24037;49.536;8.500;2023-08-08T10:13:22;3.55;;;1.05;;
38240;SDS011;24037;49.536;8.500;2023-08-08T10:15:51;2.17;;;0.50;;
38240;SDS011;24037;49.536;8.500;2023-08-08T10:18:21;2.50;;;0.50;;
38240;SDS011;24037;49.536;8.500;2023-08-08T10:20:48;3.20;;;0.85;;
38240;SDS011;24037;49.536;8.500;2023-08-08T10:23:16;1.98;;;0.70;;
38240;SDS011;24037;49.536;8.500;2023-08-08T10:25:47;1.48;;;0.82;;
38240;SDS011;24037;49.536;8.500;2023-08-08T10:28:17;1.23;;;0.55;;
38240;SDS011;24037;49.536;8.500;2023-08-08T10:30:47;2.63;;;0.80;;
38240;SDS011;24037;49.536;8.500;2023-08-08T10:33:42;2.85;;;0.93;;
38240;SDS011;24037;49.536;8.500;2023-08-08T10:36:09;2.95;;;1.13;;
38240;SDS011;24037;49.536;8.500;2023-08-08T10:38:42;1.33;;;0.70;;
38240;SDS011;24037;49.536;8.500;2023-08-08T10:41:13;0.75;;;0.40;;
38240;SDS011;24037;49.536;8.500;2023-08-08T10:43:47;2.67;;;0.68;;
38240;SDS011;24037;49.536;8.500;2023-08-08T10:46:22;2.03;;;0.50;;
38240;SDS011;24037;49.536;8.500;2023-08-08T10:48:53;1.42;;;0.50;;
38240;SDS011;24037;49.536;8.500;2023-08-08T10:51:22;2.70;;;0.50;;
38240;SDS011;24037;49.536;8.500;2023-08-08T10:53:54;2.78;;;0.95;;
38240;SDS011;24037;49.536;8.500;2023-08-08T10:56:22;1.77;;;0.47;;
38240;SDS011;24037;49.536;8.500;2023-08-08T10:58:49;1.00;;;0.40;;
38240;SDS011;24037;49.536;8.500;2023-08-08T11:01:15;2.58;;;0.50;;
38240;SDS011;24037;49.536;8.500;2023-08-08T11:03:43;1.13;;;0.50;;
38240;SDS011;24037;49.536;8.500;2023-08-08T11:06:11;2.23;;;0.60;;
38240;SDS011;24037;49.536;8.500;2023-08-08T11:08:38;1.40;;;0.60;;
38240;SDS011;24037;49.536;8.500;2023-08-08T11:11:05;2.95;;;0.60;;
38240;SDS011;24037;49.536;8.500;2023-08-08T11:13:31;1.85;;;0.80;;
38240;SDS011;24037;49.536;8.500;2023-08-08T11:15:58;4.88;;;0.82;;
38240;SDS011;24037;49.536;8.500;2023-08-08T11:18:27;1.17;;;0.57;;
38240;SDS011;24037;49.536;8.500;2023-08-08T11:20:54;2.22;;;0.50;;
38240;SDS011;24037;49.536;8.500;2023-08-08T11:23:20;1.23;;;0.55;;
38240;SDS011;24037;49.536;8.500;2023-08-08T11:25:47;1.85;;;0.88;;
38240;SDS011;24037;49.536;8.500;2023-08-08T11:28:13;2.63;;;0.80;;
38240;SDS011;24037;49.536;8.500;2023-08-08T11:30:41;1.27;;;0.55;;
38240;SDS011;24037;49.536;8.500;2023-08-08T11:33:09;1.55;;;0.70;;
38240;SDS011;24037;49.536;8.500;2023-08-08T11:35:38;4.88;;;0.60;;
38240;SDS011;24037;49.536;8.500;2023-08-08T11:38:11;1.77;;;0.50;;
38240;SDS011;24037;49.536;8.500;2023-08-08T11:40:39;2.53;;;0.50;;
38240;SDS011;24037;49.536;8.500;2023-08-08T11:43:05;1.67;;;0.85;;
38240;SDS011;24037;49.536;8.500;2023-08-08T11:45:33;2.13;;;0.70;;
38240;SDS011;24037;49.536;8.500;2023-08-08T11:47:59;2.83;;;0.93;;
38240;SDS011;24037;49.536;8.500;2023-08-08T11:50:27;1.40;;;0.68;;
38240;SDS011;24037;49.536;8.500;2023-08-08T11:52:54;0.98;;;0.55;;
38240;SDS011;24037;49.536;8.500;2023-08-08T11:55:26;1.73;;;0.60;;
38240;SDS011;24037;49.536;8.500;2023-08-08T11:57:53;5.13;;;1.05;;
38240;SDS011;24037;49.536;8.500;2023-08-08T12:00:25;2.08;;;0.57;;
38240;SDS011;24037;49.536;8.500;2023-08-08T12:03:00;2.47;;;0.50;;
38240;SDS011;24037;49.536;8.500;2023-08-08T12:05:27;2.05;;;0.60;;
38240;SDS011;24037;49.536;8.500;2023-08-08T12:07:54;1.20;;;0.75;;
38240;SDS011;24037;49.536;8.500;2023-08-08T12:10:21;1.63;;;0.50;;
38240;SDS011;24037;49.536;8.500;2023-08-08T12:12:52;2.58;;;0.68;;
38240;SDS011;24037;49.536;8.500;2023-08-08T12:15:28;2.05;;;0.82;;
38240;SDS011;24037;49.536;8.500;2023-08-08T12:17:57;2.45;;;0.60;;
38240;SDS011;24037;49.536;8.500;2023-08-08T12:20:27;2.67;;;0.75;;
38240;SDS011;24037;49.536;8.500;2023-08-08T12:22:55;3.45;;;0.60;;
38240;SDS011;24037;49.536;8.500;2023-08-08T12:25:21;1.02;;;0.45;;
38240;SDS011;24037;49.536;8.500;2023-08-08T12:27:48;2.67;;;0.60;;
38240;SDS011;24037;49.536;8.500;2023-08-08T12:30:15;2.65;;;1.02;;
38240;SDS011;24037;49.536;8.500;2023-08-08T12:32:41;1.50;;;0.40;;
38240;SDS011;24037;49.536;8.500;2023-08-08T12:35:07;2.13;;;0.75;;
38240;SDS011;24037;49.536;8.500;2023-08-08T12:37:33;1.10;;;0.50;;
38240;SDS011;24037;49.536;8.500;2023-08-08T12:40:00;2.30;;;0.50;;
38240;SDS011;24037;49.536;8.500;2023-08-08T12:42:28;0.75;;;0.40;;
38240;SDS011;24037;49.536;8.500;2023-08-08T12:44:54;1.45;;;0.50;;
38240;SDS011;24037;49.536;8.500;2023-08-08T12:47:23;1.33;;;0.40;;
38240;SDS011;24037;49.536;8.500;2023-08-08T12:49:49;1.85;;;0.43;;
38240;SDS011;24037;49.536;8.500;2023-08-08T12:52:15;2.60;;;0.70;;
38240;SDS011;24037;49.536;8.500;2023-08-08T12:54:42;1.30;;;0.57;;
38240;SDS011;24037;49.536;8.500;2023-08-08T12:57:08;2.50;;;1.40;;
38240;SDS011;24037;49.536;8.500;2023-08-08T12:59:35;1.80;;;0.50;;
38240;SDS011;24037;49.536;8.500;2023-08-08T13:02:01;1.00;;;0.57;;
38240;SDS011;24037;49.536;8.500;2023-08-08T13:04:28;1.38;;;0.57;;
38240;SDS011;24037;49.536;8.500;2023-08-08T13:06:54;2.58;;;0.95;;
38240;SDS011;24037;49.536;8.500;2023-08-08T13:09:21;1.33;;;0.68;;
38240;SDS011;24037;49.536;8.500;2023-08-08T13:11:47;2.60;;;0.90;;
38240;SDS011;24037;49.536;8.500;2023-08-08T13:14:16;1.70;;;0.70;;
38240;SDS011;24037;49.536;8.500;2023-08-08T13:16:42;2.00;;;0.95;;
38240;SDS011;24037;49.536;8.500;2023-08-08T13:19:08;2.35;;;0.60;;
38240;SDS011;24037;49.536;8.500;2023-08-08T13:21:35;2.90;;;0.50;;
38240;SDS011;24037;49.536;8.500;2023-08-08T13:24:01;1.17;;;0.52;;
38240;SDS011;24037;49.536;8.500;2023-08-08T13:26:27;2.15;;;0.60;;
38240;SDS011;24037;49.536;8.500;2023-08-08T13:28:56;3.95;;;1.13;;
38240;SDS011;24037;49.536;8.500;2023-08-08T13:31:22;2.67;;;0.93;;
38240;SDS011;24037;49.536;8.500;2023-08-08T13:33:48;2.45;;;0.68;;
38240;SDS011;24037;49.536;8.500;2023-08-08T13:36:15;1.65;;;0.60;;
38240;SDS011;24037;49.536;8.500;2023-08-08T13:38:41;1.25;;;0.75;;
38240;SDS011;24037;49.536;8.500;2023-08-08T13:41:07;2.80;;;0.80;;
38240;SDS011;24037;49.536;8.500;2023-08-08T13:43:33;1.98;;;0.70;;
38240;SDS011;24037;49.536;8.500;2023-08-08T13:45:59;1.45;;;0.50;;
38240;SDS011;24037;49.536;8.500;2023-08-08T13:48:26;1.45;;;0.40;;
38240;SDS011;24037;49.536;8.500;2023-08-08T13:50:52;2.05;;;0.40;;
38240;SDS011;24037;49.536;8.500;2023-08-08T13:53:18;1.48;;;0.50;;
38240;SDS011;24037;49.536;8.500;2023-08-08T13:55:44;5.10;;;0.50;;
38240;SDS011;24037;49.536;8.500;2023-08-08T13:58:11;2.40;;;0.50;;
38240;SDS011;24037;49.536;8.500;2023-08-08T14:00:37;2.42;;;0.50;;
38240;SDS011;24037;49.536;8.500;2023-08-08T14:03:06;2.80;;;0.73;;
38240;SDS011;24037;49.536;8.500;2023-08-08T14:05:32;2.55;;;0.60;;
38240;SDS011;24037;49.536;8.500;2023-08-08T14:07:58;2.63;;;0.50;;
38240;SDS011;24037;49.536;8.500;2023-08-08T14:10:24;3.20;;;0.50;;
38240;SDS011;24037;49.536;8.500;2023-08-08T14:12:50;2.00;;;0.45;;
38240;SDS011;24037;49.536;8.500;2023-08-08T14:15:17;1.00;;;0.50;;
38240;SDS011;24037;49.536;8.500;2023-08-08T14:17:43;1.77;;;0.30;;
38240;SDS011;24037;49.536;8.500;2023-08-08T14:20:10;2.85;;;0.40;;
38240;SDS011;24037;49.536;8.500;2023-08-08T14:22:37;2.40;;;0.50;;
38240;SDS011;24037;49.536;8.500;2023-08-08T14:25:03;1.10;;;0.40;;
38240;SDS011;24037;49.536;8.500;2023-08-08T14:27:31;3.58;;;0.90;;
38240;SDS011;24037;49.536;8.500;2023-08-08T14:29:58;0.95;;;0.40;;
38240;SDS011;24037;49.536;8.500;2023-08-08T14:32:25;2.38;;;0.40;;
38240;SDS011;24037;49.536;8.500;2023-08-08T14:34:51;1.60;;;0.38;;
38240;SDS011;24037;49.536;8.500;2023-08-08T14:37:17;2.63;;;0.70;;
38240;SDS011;24037;49.536;8.500;2023-08-08T14:39:43;2.72;;;0.80;;
38240;SDS011;24037;49.536;8.500;2023-08-08T14:42:10;5.85;;;0.98;;
38240;SDS011;24037;49.536;8.500;2023-08-08T14:44:36;1.90;;;0.70;;
38240;SDS011;24037;49.536;8.500;2023-08-08T14:47:02;2.17;;;0.70;;
38240;SDS011;24037;49.536;8.500;2023-08-08T14:49:28;1.60;;;0.65;;
38240;SDS011;24037;49.536;8.500;2023-08-08T14:51:54;3.17;;;0.88;;
38240;SDS011;24037;49.536;8.500;2023-08-08T14:54:20;2.85;;;0.65;;